Home > Products > Valid Products > MTR

000
SAUS41 KBOX 212055
MTRMQE
METAR KMQE 212054Z AUTO 08007KT 14/13 A2990 RMK AO1 SLP136 60015
T01390133 56003 $





000
SAUS41 KBOX 211955
MTRMQE
METAR KMQE 211954Z AUTO 11007KT 13/13 A2990 RMK AO1 SLP135 P0010
T01330133





000
SAUS41 KBOX 211855
MTRMQE
METAR KMQE 211854Z AUTO 13006KT 13/13 A2991 RMK AO1 SLP138 P0005
T01330133





000
SAUS41 KBOX 211755
MTRMQE
METAR KMQE 211754Z AUTO 14006KT 15/13 A2991 RMK AO1 SLP138 T01500128
10161 20111 58014





000
SAUS41 KBOX 211656
MTRMQE
METAR KMQE 211654Z AUTO VRB05KT 16/12 A2992 RMK AO1 SLP142 T01610122





000
SAUS41 KBOX 211656
MTRMQE
METAR KMQE 211654Z AUTO VRB05KT 16/12 A2992 RMK AO1 SLP142 T01610122





000
SAUS41 KBOX 211555
MTRMQE
METAR KMQE 211554Z AUTO 14006KT 15/12 A2994 RMK AO1 SLP148 T01500122





000
SAUS41 KBOX 211555
MTRMQE
METAR KMQE 211554Z AUTO 14006KT 15/12 A2994 RMK AO1 SLP148 T01500122





000
SAUS41 KBOX 211455
MTRMQE
METAR KMQE 211454Z AUTO 14006KT 15/12 A2995 RMK AO1 SLP152 T01500117
58003





000
SAUS41 KBOX 211355
MTRMQE
METAR KMQE 211354Z AUTO 13007KT 14/11 A2996 RMK AO1 SLP155 T01390111





000
SAUS41 KBOX 211255
MTRMQE
METAR KMQE 211254Z AUTO 12010KT 12/11 A2996 RMK AO1 SLP157 T01220111





000
SAUS41 KBOX 211155
MTRMQE
METAR KMQE 211154Z AUTO 11011KT 11/11 A2996 RMK AO1 SLP156 60001
70001 T01110106 10111 20089 55001





000
SAUS41 KBOX 211155
MTRMQE
METAR KMQE 211154Z AUTO 11011KT 11/11 A2996 RMK AO1 SLP156 60001
70001 T01110106 10111 20089 55001





000
SAUS41 KBOX 211055
MTRMQE
METAR KMQE 211054Z AUTO 11012KT 11/09 A2995 RMK AO1 SLP153 T01060089





000
SAUS41 KBOX 211055
MTRMQE
METAR KMQE 211054Z AUTO 11012KT 11/09 A2995 RMK AO1 SLP153 T01060089





000
SAUS41 KBOX 210955
MTRMQE
METAR KMQE 210954Z AUTO 11005KT 11/09 A2995 RMK AO1 SLP155 T01060089





000
SAUS41 KBOX 210955
MTRMQE
METAR KMQE 210954Z AUTO 11005KT 11/09 A2995 RMK AO1 SLP155 T01060089





000
SAUS41 KBOX 210855
MTRMQE
METAR KMQE 210854Z AUTO 13006KT 09/08 A2996 RMK AO1 SLP157 P0001
60001 T00940083 56009





000
SAUS41 KBOX 210755
MTRMQE
METAR KMQE 210754Z AUTO 14005KT 10/07 A2997 RMK AO1 SLP159 T01000072





000
SAUS41 KBOX 210655
MTRMQE
METAR KMQE 210654Z AUTO 16007KT 10/07 A2998 RMK AO1 SLP163 T01000067





000
SAUS41 KBOX 210555
MTRMQE
METAR KMQE 210554Z AUTO 18008KT 10/06 A2999 RMK AO1 SLP166 T01000061
10100 20089 58002





000
SAUS41 KBOX 210456
MTRMQE
METAR KMQE 210454Z AUTO 18010KT 09/06 A2999 RMK AO1 SLP167 T00940056
401280006





000
SAUS41 KBOX 210456
MTRMQE
METAR KMQE 210454Z AUTO 18010KT 09/06 A2999 RMK AO1 SLP167 T00940056
401280006





000
SAUS41 KBOX 210355
MTRMQE
METAR KMQE 210354Z AUTO 20013KT 09/05 A2999 RMK AO1 SLP169 T00940050





000
SAUS41 KBOX 210355
MTRMQE
METAR KMQE 210354Z AUTO 20013KT 09/05 A2999 RMK AO1 SLP169 T00940050





000
SAUS41 KBOX 210255
MTRMQE
METAR KMQE 210254Z AUTO 20012KT 09/04 A2999 RMK AO1 SLP170 T00940044
51004





000
SAUS41 KBOX 210155
MTRMQE
METAR KMQE 210154Z AUTO 21013KT 09/03 A2999 RMK AO1 SLP171 T00890033





000
SAUS41 KBOX 210155
MTRMQE
METAR KMQE 210154Z AUTO 21013KT 09/03 A2999 RMK AO1 SLP171 T00890033





000
SAUS41 KBOX 210055
MTRMQE
METAR KMQE 210054Z AUTO 21012KT 09/03 A2999 RMK AO1 SLP170 T00890028





000
SAUS41 KBOX 202355
MTRMQE
METAR KMQE 202354Z AUTO 21013KT 09/02 A2998 RMK AO1 SLP168 T00940022
10128 20094 53006





000
SAUS41 KBOX 202255
MTRMQE
METAR KMQE 202254Z AUTO 21008KT 11/01 A2998 RMK AO1 SLP165 T01060011





000
SAUS41 KBOX 202156
MTRMQE
METAR KMQE 202154Z AUTO 23011KT 11/01 A2997 RMK AO1 SLP162 T01110006





000
SAUS41 KBOX 202156
MTRMQE
METAR KMQE 202154Z AUTO 23011KT 11/01 A2997 RMK AO1 SLP162 T01110006





000
SAUS41 KBOX 202055
MTRMQE
METAR KMQE 202054Z AUTO 23008G18KT 11/M01 A2996 RMK AO1 SLP160
T01111006 55000





000
SAUS41 KBOX 201955
MTRMQE
METAR KMQE 201954Z AUTO 22013G19KT 12/M01 A2996 RMK AO1 SLP159
T01171011





000
SAUS41 KBOX 201855
MTRMQE
METAR KMQE 201854Z AUTO 23014G21KT 13/M01 A2996 RMK AO1 SLP160
T01281011





000
SAUS41 KBOX 201755
MTRMQE
METAR KMQE 201754Z AUTO 23011G16KT 11/M01 A2996 RMK AO1 SLP160
T01061011 10117 20006 58022





000
SAUS41 KBOX 201655
MTRMQE
METAR KMQE 201654Z AUTO 26015G19KT 11/M01 A2999 RMK AO1 SLP171
T01061011





000
SAUS41 KBOX 201555
MTRMQE
METAR KMQE 201554Z AUTO 25010G18KT 09/M01 A3003 RMK AO1 SLP182
T00941006





000
SAUS41 KBOX 201455
MTRMQE
METAR KMQE 201454Z AUTO 22009KT 08/M02 A3003 RMK AO1 SLP183
T00781017 50001





000
SAUS41 KBOX 201355
MTRMQE
METAR KMQE 201354Z AUTO 23010KT 06/M02 A3004 RMK AO1 SLP188
T00561017





000
SAUS41 KBOX 201255
MTRMQE
METAR KMQE 201254Z AUTO 25007KT 03/M03 A3005 RMK AO1 SLP189
T00281028





000
SAUS41 KBOX 201155
MTRMQE
METAR KMQE 201154Z AUTO 25009KT 01/M03 A3003 RMK AO1 SLP184
T00061033 10028 20006 51016





000
SAUS41 KBOX 201055
MTRMQE
METAR KMQE 201054Z AUTO 26010KT 01/M03 A3001 RMK AO1 SLP178
T00061033





000
SAUS41 KBOX 200955
MTRMQE
METAR KMQE 200954Z AUTO 26008KT 01/M03 A3000 RMK AO1 SLP173
T00061033





000
SAUS41 KBOX 200955
MTRMQE
METAR KMQE 200954Z AUTO 26008KT 01/M03 A3000 RMK AO1 SLP173
T00061033





000
SAUS41 KBOX 200855
MTRMQE
METAR KMQE 200854Z AUTO 30009KT 02/M03 A2998 RMK AO1 SLP167
T00171033 51009





000
SAUS41 KBOX 200755
MTRMQE
METAR KMQE 200754Z AUTO 30009G18KT 02/M04 A2997 RMK AO1 SLP163
T00221039





000
SAUS41 KBOX 200755
MTRMQE
METAR KMQE 200754Z AUTO 30009G18KT 02/M04 A2997 RMK AO1 SLP163
T00221039





000
SAUS41 KBOX 200655
MTRMQE
METAR KMQE 200654Z AUTO 31012G18KT 03/M04 A2996 RMK AO1 SLP160
T00281039





000
SAUS41 KBOX 200555
MTRMQE
METAR KMQE 200554Z AUTO 31015G23KT 03/M04 A2995 RMK AO1 SLP156
T00281039 10067 20028 51012





000
SAUS41 KBOX 200455
MTRMQE
METAR KMQE 200454Z AUTO 30012KT 04/M04 A2995 RMK AO1 SLP154
T00391044 401280033





000
SAUS41 KBOX 200355
MTRMQE
METAR KMQE 200354Z AUTO 33014G21KT 05/M04 A2993 RMK AO1 SLP149
T00501039





000
SAUS41 KBOX 200255
MTRMQE
METAR KMQE 200254Z AUTO 31007KT 06/M01 A2992 RMK AO1 SLP144
T00611006 51011





000
SAUS41 KBOX 200155
MTRMQE
METAR KMQE 200154Z AUTO 31005KT 06/M01 A2991 RMK AO1 SLP141
T00611011





000
SAUS41 KBOX 200055
MTRMQE
METAR KMQE 200054Z AUTO 32007KT 07/M01 A2990 RMK AO1 SLP137
T00671011





000
SAUS41 KBOX 192355
MTRMQE
METAR KMQE 192354Z AUTO 32011G17KT 07/M02 A2988 RMK AO1 SLP133
T00671017 10111 20067 53024





000
SAUS41 KBOX 192355
MTRMQE
METAR KMQE 192354Z AUTO 32011G17KT 07/M02 A2988 RMK AO1 SLP133
T00671017 10111 20067 53024





000
SAUS41 KBOX 192255
MTRMQE
METAR KMQE 192254Z AUTO 33010G20KT 07/M01 A2986 RMK AO1 PK WND
32027/2156 SLP125 T00721006





000
SAUS41 KBOX 192255
MTRMQE
METAR KMQE 192254Z AUTO 33010G20KT 07/M01 A2986 RMK AO1 PK WND
32027/2156 SLP125 T00721006





000
SAUS41 KBOX 192155
MTRMQE
METAR KMQE 192154Z AUTO 31016G24KT 08/M02 A2983 RMK AO1 PK WND
33026/2123 SLP114 T00831017





000
SAUS41 KBOX 192055
MTRMQE
METAR KMQE 192054Z AUTO 31009G20KT 09/M01 A2981 RMK AO1 SLP106
T00891006 51020





000
SAUS41 KBOX 191955
MTRMQE
METAR KMQE 191954Z AUTO 31011KT 09/00 A2979 RMK AO1 SLP100 T00940000





000
SAUS41 KBOX 191855
MTRMQE
METAR KMQE 191854Z AUTO 33014G20KT 10/00 A2977 RMK AO1 SLP092
T01000000





000
SAUS41 KBOX 191755
MTRMQE
METAR KMQE 191754Z AUTO 33010G20KT 10/01 A2975 RMK AO1 SLP085
T01000006 10128 20083 55005





000
SAUS41 KBOX 191655
MTRMQE
METAR KMQE 191654Z AUTO 31011G23KT 12/02 A2973 RMK AO1 PK WND
32026/1618 SLP079 T01170022





000
SAUS41 KBOX 191555
MTRMQE
METAR KMQE 191554Z AUTO 33012G17KT 10/03 A2977 RMK AO1 SLP092
T01000028





000
SAUS41 KBOX 191455
MTRMQE
METAR KMQE 191454Z AUTO 31008G15KT 270V350 11/03 A2977 RMK AO1
SLP091 T01060033 50009





000
SAUS41 KBOX 191355
MTRMQE
METAR KMQE 191354Z AUTO 32013G18KT 09/03 A2977 RMK AO1 SLP092
T00890028





000
SAUS41 KBOX 191255
MTRMQE
METAR KMQE 191254Z AUTO 32011G17KT 08/03 A2976 RMK AO1 SLP088
T00830033





000
SAUS41 KBOX 191155
MTRMQE
METAR KMQE 191154Z AUTO 31011G19KT 09/03 A2974 RMK AO1 SLP082 70023
T00890033 10111 20089 53030





000
SAUS41 KBOX 191055
MTRMQE
METAR KMQE 191054Z AUTO 31012G21KT 09/04 A2970 RMK AO1 SLP070
T00940039





000
SAUS41 KBOX 190955
MTRMQE
METAR KMQE 190954Z AUTO 32011G20KT 10/06 A2967 RMK AO1 SLP057
T01000056





000
SAUS41 KBOX 190955
MTRMQE
METAR KMQE 190954Z AUTO 32011G20KT 10/06 A2967 RMK AO1 SLP057
T01000056





000
SAUS41 KBOX 190855
MTRMQE
METAR KMQE 190854Z AUTO 30009KT 11/08 A2965 RMK AO1 SLP050 T01060078
53013





000
SAUS41 KBOX 190755
MTRMQE
METAR KMQE 190754Z AUTO 30008KT 11/08 A2962 RMK AO1 SLP041 T01060083





000
SAUS41 KBOX 190655
MTRMQE
METAR KMQE 190654Z AUTO 27010KT 11/08 A2962 RMK AO1 SLP040 T01060083





000
SAUS41 KBOX 190555
MTRMQE
METAR KMQE 190554Z AUTO 26011KT 11/08 A2961 RMK AO1 SLP036 T01060083
10133 20106 53008





000
SAUS41 KBOX 190456
MTRMQE
METAR KMQE 190454Z AUTO 26010KT 11/08 A2960 RMK AO1 SLP032 T01110083
402170111





000
SAUS41 KBOX 190456
MTRMQE
METAR KMQE 190454Z AUTO 26010KT 11/08 A2960 RMK AO1 SLP032 T01110083
402170111





000
SAUS41 KBOX 190355
MTRMQE
METAR KMQE 190354Z AUTO 27013KT 12/09 A2959 RMK AO1 SLP027 T01170089





000
SAUS41 KBOX 190355
MTRMQE
METAR KMQE 190354Z AUTO 27013KT 12/09 A2959 RMK AO1 SLP027 T01170089





000
SAUS41 KBOX 190255
MTRMQE
METAR KMQE 190254Z AUTO 26011G18KT 12/09 A2959 RMK AO1 SLP028
T01220094 51009





000
SAUS41 KBOX 190155
MTRMQE
METAR KMQE 190154Z AUTO 28013KT 12/11 A2958 RMK AO1 SLP026 T01220106





000
SAUS41 KBOX 190055
MTRMQE
METAR KMQE 190054Z AUTO 27012KT 13/12 A2958 RMK AO1 SLP026 T01280117





000
SAUS41 KBOX 182355
MTRMQE
METAR KMQE 182354Z AUTO 26010KT 13/12 A2956 RMK AO1 SLP019 60023
T01330122 10200 20133 51021





000
SAUS41 KBOX 182255
MTRMQE
METAR KMQE 182254Z AUTO 29007KT 14/13 A2954 RMK AO1 SLP013 T01390128





000
SAUS41 KBOX 182155
MTRMQE
METAR KMQE 182154Z AUTO 27012G20KT 16/13 A2952 RMK AO1 SLP004
T01560128





    US Dept of Commerce
    National Oceanic and Atmospheric Administration
    National Weather Service
    1325 East West Highway
    Silver Spring, MD 20910
    Page Author: NWS Internet Services Team
Disclaimer
Information Quality
Credits
Glossary
Privacy Policy
Freedom of Information Act (FOIA)
About Us
Career Opportunities